createdAt,value
2018-08-09T00:00:19.891Z,1009.59
2018-08-09T00:01:19.850Z,1009.57
2018-08-09T00:02:19.810Z,1009.59
2018-08-09T00:03:19.771Z,1009.57
2018-08-09T00:04:19.732Z,1009.61
2018-08-09T00:05:19.692Z,1009.59
2018-08-09T00:06:19.653Z,1009.57
2018-08-09T00:07:19.614Z,1009.60
2018-08-09T00:08:19.575Z,1009.57
2018-08-09T00:09:19.536Z,1009.58
2018-08-09T00:10:19.496Z,1009.58
2018-08-09T00:11:19.457Z,1009.58
2018-08-09T00:12:19.418Z,1009.59
2018-08-09T00:13:19.380Z,1009.61
2018-08-09T00:14:19.339Z,1009.57
2018-08-09T00:15:19.300Z,1009.58
2018-08-09T00:16:19.261Z,1009.56
2018-08-09T00:17:19.221Z,1009.58
2018-08-09T00:18:19.182Z,1009.58
2018-08-09T00:19:19.143Z,1009.56
2018-08-09T00:20:19.104Z,1009.57
2018-08-09T00:21:19.069Z,1009.58
2018-08-09T00:22:19.027Z,1009.57
2018-08-09T00:23:18.986Z,1009.59
2018-08-09T00:24:18.947Z,1009.59
2018-08-09T00:25:18.907Z,1009.57
2018-08-09T00:26:18.867Z,1009.58
2018-08-09T00:27:18.828Z,1009.62
2018-08-09T00:28:18.790Z,1009.65
2018-08-09T00:29:18.752Z,1009.66
2018-08-09T00:30:18.710Z,1009.66
2018-08-09T00:31:18.671Z,1009.67
2018-08-09T00:32:18.632Z,1009.66
2018-08-09T00:33:18.592Z,1009.73
2018-08-09T00:34:18.557Z,1009.73
2018-08-09T00:35:18.514Z,1009.73
2018-08-09T00:36:18.475Z,1009.74
2018-08-09T00:37:18.435Z,1009.75
2018-08-09T00:38:18.395Z,1009.74
2018-08-09T00:39:18.357Z,1009.72
2018-08-09T00:40:18.317Z,1009.78
2018-08-09T00:41:18.278Z,1009.79
2018-08-09T00:42:18.239Z,1009.80
2018-08-09T00:43:18.199Z,1009.81
2018-08-09T00:44:18.160Z,1009.84
2018-08-09T00:45:18.120Z,1009.85
2018-08-09T00:46:18.084Z,1009.86
2018-08-09T00:47:18.042Z,1009.88
2018-08-09T00:48:18.006Z,1009.90
2018-08-09T00:49:17.963Z,1009.93
2018-08-09T00:50:17.923Z,1009.92
2018-08-09T00:51:17.888Z,1009.93
2018-08-09T00:52:17.845Z,1009.90
2018-08-09T00:53:17.805Z,1009.85
2018-08-09T00:54:17.766Z,1009.92
2018-08-09T00:55:17.731Z,1009.93
2018-08-09T00:56:17.688Z,1009.92
2018-08-09T00:57:17.653Z,1009.95
2018-08-09T00:58:17.609Z,1009.97
2018-08-09T00:59:17.772Z,1009.96
2018-08-09T01:00:17.530Z,1009.99
2018-08-09T01:01:17.490Z,1009.98
2018-08-09T01:02:17.451Z,1009.99
2018-08-09T01:03:17.412Z,1009.96
2018-08-09T01:04:17.372Z,1009.99
2018-08-09T01:05:17.335Z,1010.01
2018-08-09T01:06:17.293Z,1010.00
2018-08-09T01:07:17.255Z,1010.02
2018-08-09T01:08:17.217Z,1010.03
2018-08-09T01:09:17.176Z,1010.03
2018-08-09T01:10:17.136Z,1010.05
2018-08-09T01:11:17.097Z,1010.09
2018-08-09T01:12:17.060Z,1010.09
2018-08-09T01:13:17.018Z,1010.11
2018-08-09T01:14:16.979Z,1010.06
2018-08-09T01:15:16.939Z,1010.10
2018-08-09T01:16:16.900Z,1010.08
2018-08-09T01:17:16.860Z,1010.05
2018-08-09T01:18:16.821Z,1010.10
2018-08-09T01:19:16.781Z,1010.08
2018-08-09T01:20:16.742Z,1010.09
2018-08-09T01:21:16.706Z,1010.13
2018-08-09T01:22:16.663Z,1010.16
2018-08-09T01:23:16.624Z,1010.19
2018-08-09T01:24:16.584Z,1010.18
2018-08-09T01:25:16.544Z,1010.23
2018-08-09T01:26:16.508Z,1010.32
2018-08-09T01:27:16.467Z,1010.30
2018-08-09T01:28:16.427Z,1010.35
2018-08-09T01:29:16.387Z,1010.35
2018-08-09T01:30:16.348Z,1010.36
2018-08-09T01:31:16.308Z,1010.38
2018-08-09T01:32:16.269Z,1010.39
2018-08-09T01:33:16.229Z,1010.41
2018-08-09T01:34:16.196Z,1010.40
2018-08-09T01:35:16.151Z,1010.39
2018-08-09T01:36:16.111Z,1010.41
2018-08-09T01:37:16.073Z,1010.42
2018-08-09T01:38:16.036Z,1010.42
2018-08-09T01:39:15.992Z,1010.46
2018-08-09T01:40:15.953Z,1010.49
2018-08-09T01:41:15.912Z,1010.46
2018-08-09T01:42:15.876Z,1010.50
2018-08-09T01:43:15.835Z,1010.52
2018-08-09T01:44:15.795Z,1010.50
2018-08-09T01:45:15.755Z,1010.51
2018-08-09T01:46:15.716Z,1010.54
2018-08-09T01:47:15.679Z,1010.48
2018-08-09T01:48:15.637Z,1010.52
2018-08-09T01:49:15.599Z,1010.51
2018-08-09T01:50:15.557Z,1010.52
2018-08-09T01:51:15.518Z,1010.56
2018-08-09T01:52:15.479Z,1010.56
2018-08-09T01:53:15.439Z,1010.56
2018-08-09T01:54:15.399Z,1010.58
2018-08-09T01:55:15.360Z,1010.62
2018-08-09T01:56:15.321Z,1010.63
2018-08-09T01:57:15.287Z,1010.61
2018-08-09T01:58:15.242Z,1010.62
2018-08-09T01:59:15.203Z,1010.61
2018-08-09T02:00:15.164Z,1010.60
2018-08-09T02:01:15.123Z,1010.57
2018-08-09T02:02:15.084Z,1010.58
2018-08-09T02:03:15.044Z,1010.53
2018-08-09T02:04:15.006Z,1010.50
2018-08-09T02:05:14.964Z,1010.53
2018-08-09T02:06:14.931Z,1010.57
2018-08-09T02:07:14.885Z,1010.61
2018-08-09T02:08:14.847Z,1010.66
2018-08-09T02:09:14.806Z,1010.72
2018-08-09T02:10:14.818Z,1010.74
2018-08-09T02:11:14.728Z,1010.71
2018-08-09T02:12:14.688Z,1010.70
2018-08-09T02:13:14.651Z,1010.67
2018-08-09T02:14:14.608Z,1010.66
2018-08-09T02:15:14.569Z,1010.68
2018-08-09T02:16:14.532Z,1010.72
2018-08-09T02:17:14.490Z,1010.74
2018-08-09T02:18:14.450Z,1010.73
2018-08-09T02:19:14.411Z,1010.72
2018-08-09T02:20:14.372Z,1010.77
2018-08-09T02:21:14.332Z,1010.75
2018-08-09T02:22:14.292Z,1010.73
2018-08-09T02:23:14.253Z,1010.72
2018-08-09T02:24:14.214Z,1010.71
2018-08-09T02:25:14.172Z,1010.71
2018-08-09T02:26:14.134Z,1010.69
2018-08-09T02:27:14.095Z,1010.71
2018-08-09T02:28:14.055Z,1010.74
2018-08-09T02:29:14.015Z,1010.76
2018-08-09T02:30:13.976Z,1010.75
2018-08-09T02:31:13.946Z,1010.71
2018-08-09T02:32:13.897Z,1010.81
2018-08-09T02:33:13.857Z,1010.80
2018-08-09T02:34:13.817Z,1010.74
2018-08-09T02:35:13.785Z,1010.81
2018-08-09T02:36:13.738Z,1010.83
2018-08-09T02:37:13.698Z,1010.81
2018-08-09T02:38:13.659Z,1010.85
2018-08-09T02:39:13.619Z,1010.86
2018-08-09T02:40:13.580Z,1010.89
2018-08-09T02:41:13.539Z,1010.90
2018-08-09T02:42:13.501Z,1010.92
2018-08-09T02:43:13.462Z,1010.96
2018-08-09T02:44:13.421Z,1010.92
2018-08-09T02:45:13.436Z,1010.90
2018-08-09T02:46:13.341Z,1010.90
2018-08-09T02:47:13.308Z,1010.92
2018-08-09T02:48:13.266Z,1010.87
2018-08-09T02:49:13.225Z,1010.85
2018-08-09T02:50:13.189Z,1010.85
2018-08-09T02:51:13.148Z,1010.94
2018-08-09T02:52:13.106Z,1010.93
2018-08-09T02:53:13.073Z,1011.02
2018-08-09T02:54:13.027Z,1011.05
2018-08-09T02:55:12.986Z,1011.10
2018-08-09T02:56:12.946Z,1011.14
2018-08-09T02:57:12.905Z,1011.15
2018-08-09T02:58:12.866Z,1011.14
2018-08-09T02:59:12.827Z,1011.14
2018-08-09T03:00:12.787Z,1011.15
2018-08-09T03:01:12.748Z,1011.14
2018-08-09T03:02:12.707Z,1011.07
2018-08-09T03:03:12.668Z,1011.11
2018-08-09T03:04:12.629Z,1011.03
2018-08-09T03:05:12.588Z,1011.01
2018-08-09T03:06:12.548Z,1010.98
2018-08-09T03:07:12.509Z,1010.97
2018-08-09T03:08:12.470Z,1010.97
2018-08-09T03:09:12.438Z,1010.98
2018-08-09T03:10:12.390Z,1010.98
2018-08-09T03:11:12.350Z,1011.07
2018-08-09T03:12:12.311Z,1011.04
2018-08-09T03:13:12.270Z,1011.08
2018-08-09T03:14:12.231Z,1011.05
2018-08-09T03:15:12.191Z,1011.05
2018-08-09T03:16:12.152Z,1011.00
2018-08-09T03:17:12.128Z,1011.00
2018-08-09T03:18:12.078Z,1011.00
2018-08-09T03:19:12.059Z,1010.99
2018-08-09T03:20:11.992Z,1010.99
2018-08-09T03:21:11.956Z,1010.96
2018-08-09T03:22:11.916Z,1010.98
2018-08-09T03:23:11.873Z,1010.96
2018-08-09T03:24:11.835Z,1011.01
2018-08-09T03:25:11.793Z,1010.99
2018-08-09T03:26:11.753Z,1011.06
2018-08-09T03:27:11.718Z,1011.04
2018-08-09T03:28:11.674Z,1011.06
2018-08-09T03:29:11.634Z,1011.10
2018-08-09T03:30:11.595Z,1011.12
2018-08-09T03:31:11.555Z,1011.12
2018-08-09T03:32:11.515Z,1011.13
2018-08-09T03:33:11.475Z,1011.10
2018-08-09T03:34:11.436Z,1011.14
2018-08-09T03:35:11.396Z,1011.16
2018-08-09T03:36:11.356Z,1011.16
2018-08-09T03:37:11.316Z,1011.16
2018-08-09T03:38:11.276Z,1011.17
2018-08-09T03:39:11.237Z,1011.20
2018-08-09T03:40:11.197Z,1011.22
2018-08-09T03:41:11.165Z,1011.22
2018-08-09T03:42:11.117Z,1011.26
2018-08-09T03:43:11.083Z,1011.28
2018-08-09T03:44:11.037Z,1011.30
2018-08-09T03:45:10.997Z,1011.32
2018-08-09T03:46:10.958Z,1011.33
2018-08-09T03:47:10.918Z,1011.30
2018-08-09T03:48:10.878Z,1011.31
2018-08-09T03:49:10.838Z,1011.27
2018-08-09T03:50:10.799Z,1011.29
2018-08-09T03:51:10.759Z,1011.28
2018-08-09T03:52:10.719Z,1011.28
2018-08-09T03:53:10.737Z,1011.30
2018-08-09T03:54:10.639Z,1011.28
2018-08-09T03:55:10.601Z,1011.31
2018-08-09T03:56:10.560Z,1011.33
2018-08-09T03:57:10.520Z,1011.30
2018-08-09T03:58:10.494Z,1011.34
2018-08-09T03:59:10.441Z,1011.34
2018-08-09T04:00:10.401Z,1011.30
2018-08-09T04:01:10.360Z,1011.27
2018-08-09T04:02:10.322Z,1011.27
2018-08-09T04:03:10.283Z,1011.27
2018-08-09T04:04:10.244Z,1011.29
2018-08-09T04:05:10.203Z,1011.26
2018-08-09T04:06:10.164Z,1011.27
2018-08-09T04:07:10.122Z,1011.25
2018-08-09T04:08:10.082Z,1011.23
2018-08-09T04:09:10.043Z,1011.20
2018-08-09T04:10:10.002Z,1011.22
2018-08-09T04:11:09.963Z,1011.23
2018-08-09T04:12:09.981Z,1011.18
2018-08-09T04:13:09.884Z,1011.20
2018-08-09T04:14:09.845Z,1011.25
2018-08-09T04:15:09.803Z,1011.23
2018-08-09T04:16:09.764Z,1011.21
2018-08-09T04:17:09.723Z,1011.22
2018-08-09T04:18:09.684Z,1011.20
2018-08-09T04:19:09.644Z,1011.23
2018-08-09T04:20:09.604Z,1011.22
2018-08-09T04:21:09.564Z,1011.18
2018-08-09T04:22:09.524Z,1011.20
2018-08-09T04:23:09.484Z,1011.18
2018-08-09T04:24:09.444Z,1011.20
2018-08-09T04:25:09.404Z,1011.22
2018-08-09T04:26:09.365Z,1011.24
2018-08-09T04:27:09.325Z,1011.23
2018-08-09T04:28:09.285Z,1011.27
2018-08-09T04:29:09.249Z,1011.26
2018-08-09T04:30:09.210Z,1011.29
2018-08-09T04:31:09.211Z,1011.34
2018-08-09T04:32:09.126Z,1011.31
2018-08-09T04:33:09.085Z,1011.35
2018-08-09T04:34:09.047Z,1011.34
2018-08-09T04:35:09.008Z,1011.36
2018-08-09T04:36:08.968Z,1011.38
2018-08-09T04:37:08.925Z,1011.40
2018-08-09T04:38:08.886Z,1011.38
2018-08-09T04:39:08.846Z,1011.38
2018-08-09T04:40:08.807Z,1011.35
2018-08-09T04:41:08.868Z,1011.35
2018-08-09T04:42:08.726Z,1011.37
2018-08-09T04:43:08.687Z,1011.34
2018-08-09T04:44:08.648Z,1011.36
2018-08-09T04:45:08.607Z,1011.29
2018-08-09T04:46:08.567Z,1011.30
2018-08-09T04:47:08.527Z,1011.30
2018-08-09T04:48:08.488Z,1011.28
2018-08-09T04:49:08.498Z,1011.31
2018-08-09T04:50:08.407Z,1011.33
2018-08-09T04:51:08.371Z,1011.34
2018-08-09T04:52:08.327Z,1011.33
2018-08-09T04:53:08.295Z,1011.35
2018-08-09T04:54:08.248Z,1011.36
2018-08-09T04:55:08.209Z,1011.34
2018-08-09T04:56:08.169Z,1011.37
2018-08-09T04:57:08.128Z,1011.37
2018-08-09T04:58:08.111Z,1011.40
2018-08-09T04:59:08.048Z,1011.39
2018-08-09T05:00:08.009Z,1011.38
2018-08-09T05:01:07.970Z,1011.36
2018-08-09T05:02:07.929Z,1011.39
2018-08-09T05:03:07.890Z,1011.36
2018-08-09T05:04:07.849Z,1011.42
2018-08-09T05:05:07.809Z,1011.44
2018-08-09T05:06:07.769Z,1011.44
2018-08-09T05:07:07.729Z,1011.42
2018-08-09T05:08:07.691Z,1011.45
2018-08-09T05:09:07.649Z,1011.42
2018-08-09T05:10:07.610Z,1011.41
2018-08-09T05:11:07.571Z,1011.40
2018-08-09T05:12:07.532Z,1011.44
2018-08-09T05:13:07.490Z,1011.40
2018-08-09T05:14:07.450Z,1011.44
2018-08-09T05:15:07.411Z,1011.42
2018-08-09T05:16:07.371Z,1011.41
2018-08-09T05:17:07.330Z,1011.42
2018-08-09T05:18:07.294Z,1011.46
2018-08-09T05:19:07.254Z,1011.46
2018-08-09T05:20:07.211Z,1011.44
2018-08-09T05:21:07.171Z,1011.54
2018-08-09T05:22:07.131Z,1011.50
2018-08-09T05:23:07.143Z,1011.49
2018-08-09T05:24:07.052Z,1011.48
2018-08-09T05:25:07.012Z,1011.49
2018-08-09T05:26:06.975Z,1011.49
2018-08-09T05:27:06.932Z,1011.51
2018-08-09T05:28:06.893Z,1011.58
2018-08-09T05:29:06.852Z,1011.53
2018-08-09T05:30:06.812Z,1011.55
2018-08-09T05:31:06.773Z,1011.56
2018-08-09T05:32:06.732Z,1011.54
2018-08-09T05:33:06.692Z,1011.56
2018-08-09T05:34:06.674Z,1011.52
2018-08-09T05:35:06.614Z,1011.57
2018-08-09T05:36:06.573Z,1011.57
2018-08-09T05:37:06.532Z,1011.51
2018-08-09T05:38:06.493Z,1011.50
2018-08-09T05:39:06.453Z,1011.49
2018-08-09T05:40:06.416Z,1011.44
2018-08-09T05:41:06.372Z,1011.46
2018-08-09T05:42:06.333Z,1011.43
2018-08-09T05:43:06.292Z,1011.43
2018-08-09T05:44:06.253Z,1011.48
2018-08-09T05:45:06.227Z,1011.49
2018-08-09T05:46:06.173Z,1011.47
2018-08-09T05:47:06.132Z,1011.48
2018-08-09T05:48:06.093Z,1011.52
2018-08-09T05:49:06.052Z,1011.51
2018-08-09T05:50:06.015Z,1011.54
2018-08-09T05:51:05.973Z,1011.51
2018-08-09T05:52:05.933Z,1011.49
2018-08-09T05:53:05.900Z,1011.50
2018-08-09T05:54:05.853Z,1011.50
2018-08-09T05:55:06.013Z,1011.48
2018-08-09T05:56:05.775Z,1011.52
2018-08-09T05:57:05.735Z,1011.48
2018-08-09T05:58:05.693Z,1011.51
2018-08-09T05:59:05.655Z,1011.53
2018-08-09T06:00:05.614Z,1011.51
2018-08-09T06:01:05.575Z,1011.56
2018-08-09T06:02:05.534Z,1011.46
2018-08-09T06:03:05.494Z,1011.52
2018-08-09T06:04:05.455Z,1011.51
2018-08-09T06:05:05.417Z,1011.53
2018-08-09T06:06:05.374Z,1011.54
2018-08-09T06:07:05.334Z,1011.54
2018-08-09T06:08:05.296Z,1011.54
2018-08-09T06:09:05.255Z,1011.55
2018-08-09T06:10:05.217Z,1011.56
2018-08-09T06:11:05.175Z,1011.58
2018-08-09T06:12:05.136Z,1011.55
2018-08-09T06:13:05.096Z,1011.56
2018-08-09T06:14:05.056Z,1011.55
2018-08-09T06:15:05.019Z,1011.57
2018-08-09T06:16:04.977Z,1011.52
2018-08-09T06:17:04.936Z,1011.55
2018-08-09T06:18:04.896Z,1011.56
2018-08-09T06:19:04.857Z,1011.53
2018-08-09T06:20:04.817Z,1011.50
2018-08-09T06:21:04.777Z,1011.55
2018-08-09T06:22:04.738Z,1011.56
2018-08-09T06:23:04.698Z,1011.55
2018-08-09T06:24:04.659Z,1011.61
2018-08-09T06:25:04.622Z,1011.58
2018-08-09T06:26:04.579Z,1011.60
2018-08-09T06:27:04.540Z,1011.61
2018-08-09T06:28:04.507Z,1011.60
2018-08-09T06:29:04.459Z,1011.59
2018-08-09T06:30:04.421Z,1011.58
2018-08-09T06:31:04.382Z,1011.60
2018-08-09T06:32:04.344Z,1011.63
2018-08-09T06:33:04.301Z,1011.66
2018-08-09T06:34:04.265Z,1011.64
2018-08-09T06:35:04.223Z,1011.62
2018-08-09T06:36:04.192Z,1011.62
2018-08-09T06:37:04.143Z,1011.65
2018-08-09T06:38:04.103Z,1011.68
2018-08-09T06:39:04.065Z,1011.72
2018-08-09T06:40:04.025Z,1011.70
2018-08-09T06:41:04.084Z,1011.73
2018-08-09T06:42:03.953Z,1011.68
2018-08-09T06:43:03.905Z,1011.72
2018-08-09T06:44:03.866Z,1011.71
2018-08-09T06:45:03.826Z,1011.71
2018-08-09T06:46:03.787Z,1011.71
2018-08-09T06:47:03.747Z,1011.72
2018-08-09T06:48:03.709Z,1011.74
2018-08-09T06:49:03.668Z,1011.73
2018-08-09T06:50:03.632Z,1011.77
2018-08-09T06:51:03.590Z,1011.76
2018-08-09T06:52:03.555Z,1011.73
2018-08-09T06:53:03.510Z,1011.71
2018-08-09T06:54:03.471Z,1011.74
2018-08-09T06:55:03.432Z,1011.74
2018-08-09T06:56:03.393Z,1011.77
2018-08-09T06:57:03.353Z,1011.82
2018-08-09T06:58:03.315Z,1011.79
2018-08-09T06:59:03.277Z,1011.83
2018-08-09T07:00:03.237Z,1011.88
2018-08-09T07:01:03.195Z,1011.84
2018-08-09T07:02:03.156Z,1011.88
2018-08-09T07:03:03.116Z,1011.95
2018-08-09T07:04:03.078Z,1011.91
2018-08-09T07:05:03.038Z,1011.93
2018-08-09T07:06:03.001Z,1011.91
2018-08-09T07:07:03.026Z,1011.92
2018-08-09T07:08:02.923Z,1011.94
2018-08-09T07:09:02.880Z,1011.95
2018-08-09T07:10:02.843Z,1011.96
2018-08-09T07:11:02.805Z,1011.96
2018-08-09T07:12:02.763Z,1011.94
2018-08-09T07:13:02.723Z,1011.89
2018-08-09T07:14:02.683Z,1011.93
2018-08-09T07:15:02.695Z,1011.91
2018-08-09T07:16:02.606Z,1011.93
2018-08-09T07:17:02.565Z,1011.87
2018-08-09T07:18:02.527Z,1011.86
2018-08-09T07:19:02.488Z,1011.85
2018-08-09T07:20:02.450Z,1011.87
2018-08-09T07:21:02.409Z,1011.86
2018-08-09T07:22:02.865Z,1011.88
2018-08-09T07:23:02.335Z,1011.88
2018-08-09T07:24:02.295Z,1011.90
2018-08-09T07:25:02.253Z,1011.83
2018-08-09T07:26:02.214Z,1011.86
2018-08-09T07:27:02.176Z,1011.89
2018-08-09T07:28:02.136Z,1011.95
2018-08-09T07:29:02.096Z,1011.92
2018-08-09T07:30:02.058Z,1011.90
2018-08-09T07:31:02.020Z,1011.90
2018-08-09T07:32:01.986Z,1011.90
2018-08-09T07:33:01.943Z,1011.92
2018-08-09T07:34:01.902Z,1011.94
2018-08-09T07:35:01.862Z,1011.99
2018-08-09T07:36:01.823Z,1012.02
2018-08-09T07:37:01.784Z,1012.02
2018-08-09T07:38:01.747Z,1012.01
2018-08-09T07:39:01.710Z,1012.04
2018-08-09T07:40:01.668Z,1012.06
2018-08-09T07:41:01.658Z,1012.03
2018-08-09T07:42:01.590Z,1012.04
2018-08-09T07:43:01.551Z,1012.07
2018-08-09T07:44:01.527Z,1011.99
2018-08-09T07:45:01.473Z,1011.93
2018-08-09T07:46:01.434Z,1011.96
2018-08-09T07:47:01.395Z,1011.93
2018-08-09T07:48:01.357Z,1011.94
2018-08-09T07:49:01.317Z,1011.92
2018-08-09T07:50:01.280Z,1011.93
2018-08-09T07:51:01.240Z,1011.93
2018-08-09T07:52:01.203Z,1011.89
2018-08-09T07:53:01.162Z,1011.88
2018-08-09T07:54:01.124Z,1011.92
2018-08-09T07:55:01.088Z,1011.90
2018-08-09T07:56:01.047Z,1011.94
2018-08-09T07:57:01.015Z,1012.03
2018-08-09T07:58:00.969Z,1012.12
2018-08-09T07:59:00.933Z,1012.17
2018-08-09T08:00:00.892Z,1012.13
2018-08-09T08:01:00.868Z,1012.18
2018-08-09T08:02:00.815Z,1012.21
2018-08-09T08:03:00.777Z,1012.19
2018-08-09T08:04:00.740Z,1012.16
2018-08-09T08:05:00.699Z,1012.14
2018-08-09T08:06:00.668Z,1012.20
2018-08-09T08:07:00.629Z,1012.19
2018-08-09T08:08:00.585Z,1012.22
2018-08-09T08:09:00.550Z,1012.25
2018-08-09T08:10:00.507Z,1012.32
2018-08-09T08:11:00.476Z,1012.30
2018-08-09T08:12:00.432Z,1012.24
2018-08-09T08:13:00.393Z,1012.33
2018-08-09T08:14:00.354Z,1012.36
2018-08-09T08:15:00.378Z,1012.37
2018-08-09T08:16:00.281Z,1012.42
2018-08-09T08:17:00.239Z,1012.38
2018-08-09T08:18:00.203Z,1012.47
2018-08-09T08:19:00.164Z,1012.49
2018-08-09T08:20:00.126Z,1012.47
2018-08-09T08:21:00.088Z,1012.54
2018-08-09T08:22:00.050Z,1012.65
2018-08-09T08:23:00.012Z,1012.76
2018-08-09T08:23:59.974Z,1012.75
2018-08-09T08:24:59.936Z,1012.76
2018-08-09T08:25:59.898Z,1012.85
2018-08-09T08:26:59.860Z,1012.97
2018-08-09T08:27:59.823Z,1013.37
2018-08-09T08:28:59.784Z,1013.21
2018-08-09T08:29:59.747Z,1012.89
2018-08-09T08:30:59.735Z,1013.20
2018-08-09T08:31:59.672Z,1013.50
2018-08-09T08:32:59.633Z,1013.44
2018-08-09T08:33:59.596Z,1013.58
2018-08-09T08:34:59.558Z,1013.74
2018-08-09T08:35:59.521Z,1013.86
2018-08-09T08:36:59.486Z,1014.08
2018-08-09T08:37:59.446Z,1013.72
2018-08-09T08:38:59.409Z,1013.43
2018-08-09T08:39:59.371Z,1012.62
2018-08-09T08:40:59.333Z,1012.53
2018-08-09T08:41:59.303Z,1012.10
2018-08-09T08:42:59.259Z,1012.19
2018-08-09T08:43:59.222Z,1012.50
2018-08-09T08:44:59.184Z,1011.96
2018-08-09T08:45:59.147Z,1011.86
2018-08-09T08:46:59.110Z,1011.97
2018-08-09T08:47:59.123Z,1012.30
2018-08-09T08:48:59.036Z,1013.05
2018-08-09T08:49:58.998Z,1012.33
2018-08-09T08:50:58.965Z,1012.79
2018-08-09T08:51:58.923Z,1012.82
2018-08-09T08:52:58.890Z,1013.25
2018-08-09T08:53:58.848Z,1013.12
2018-08-09T08:54:58.813Z,1013.74
2018-08-09T08:55:58.774Z,1014.16
2018-08-09T08:56:58.735Z,1015.51
2018-08-09T08:57:58.698Z,1014.58
2018-08-09T08:58:58.661Z,1012.84
2018-08-09T08:59:58.625Z,1013.82
2018-08-09T09:00:58.600Z,1012.93
2018-08-09T09:01:58.554Z,1013.38
2018-08-09T09:02:58.512Z,1013.64
2018-08-09T09:03:58.480Z,1013.73
2018-08-09T09:04:58.471Z,1013.76
2018-08-09T09:05:58.401Z,1014.09
2018-08-09T09:06:58.420Z,1013.97
2018-08-09T09:07:58.332Z,1013.67
2018-08-09T09:08:58.289Z,1013.57
2018-08-09T09:09:58.252Z,1013.49
2018-08-09T09:10:58.265Z,1013.71
2018-08-09T09:11:58.195Z,1014.39
2018-08-09T09:12:58.141Z,1015.09
2018-08-09T09:13:58.105Z,1015.79
2018-08-09T09:14:58.068Z,1014.66
2018-08-09T09:15:58.035Z,1013.02
2018-08-09T09:16:57.994Z,1013.05
2018-08-09T09:17:57.958Z,1013.41
2018-08-09T09:18:57.921Z,1014.62
2018-08-09T09:19:57.885Z,1015.74
2018-08-09T09:20:57.850Z,1015.01
2018-08-09T09:21:57.811Z,1013.94
2018-08-09T09:22:57.775Z,1013.69
2018-08-09T09:23:57.738Z,1013.71
2018-08-09T09:24:57.702Z,1013.41
2018-08-09T09:25:57.665Z,1014.91
2018-08-09T09:26:57.635Z,1014.90
2018-08-09T09:27:57.595Z,1012.65
2018-08-09T09:28:57.555Z,1012.26
2018-08-09T09:29:57.519Z,1012.65
2018-08-09T09:30:57.483Z,1012.64
2018-08-09T09:31:57.449Z,1012.81
2018-08-09T09:32:57.409Z,1012.98
2018-08-09T09:33:57.373Z,1013.52
2018-08-09T09:34:57.347Z,1012.81
2018-08-09T09:35:57.300Z,1011.40
2018-08-09T09:36:57.263Z,1011.30
2018-08-09T09:37:57.227Z,1011.25
2018-08-09T09:38:57.191Z,1011.22
2018-08-09T09:39:57.153Z,1011.25
2018-08-09T09:40:57.116Z,1011.20
2018-08-09T09:41:57.081Z,1011.22
2018-08-09T09:42:57.044Z,1011.20
2018-08-09T09:43:57.009Z,1011.23
2018-08-09T09:44:56.971Z,1011.17
2018-08-09T09:45:56.934Z,1011.19
2018-08-09T09:46:56.898Z,1011.13
2018-08-09T09:47:56.861Z,1011.11
2018-08-09T09:48:56.824Z,1011.12
2018-08-09T09:49:56.787Z,1011.13
2018-08-09T09:50:56.751Z,1011.11
2018-08-09T09:51:56.714Z,1011.06
2018-08-09T09:52:56.677Z,1011.04
2018-08-09T09:53:56.639Z,1011.01
2018-08-09T09:54:56.641Z,1010.99
2018-08-09T09:55:56.576Z,1010.97
2018-08-09T09:56:56.530Z,1011.02
2018-08-09T09:57:56.494Z,1011.03
2018-08-09T09:58:56.454Z,1010.99
2018-08-09T09:59:56.419Z,1010.96
2018-08-09T10:00:56.378Z,1010.94
2018-08-09T10:01:56.386Z,1010.97
2018-08-09T10:02:56.304Z,1010.95
2018-08-09T10:03:56.266Z,1010.96
2018-08-09T10:04:56.228Z,1010.96
2018-08-09T10:05:56.191Z,1010.94
2018-08-09T10:06:56.199Z,1010.92
2018-08-09T10:07:56.116Z,1010.91
2018-08-09T10:08:56.078Z,1010.84
2018-08-09T10:09:56.041Z,1010.83
2018-08-09T10:10:56.003Z,1010.81
2018-08-09T10:11:55.965Z,1010.75
2018-08-09T10:12:55.927Z,1010.68
2018-08-09T10:13:55.889Z,1010.72
2018-08-09T10:14:55.852Z,1010.65
2018-08-09T10:15:55.814Z,1010.70
2018-08-09T10:16:55.778Z,1010.64
2018-08-09T10:17:55.738Z,1010.62
2018-08-09T10:18:55.700Z,1010.58
2018-08-09T10:19:55.663Z,1010.59
2018-08-09T10:20:55.624Z,1010.56
2018-08-09T10:21:55.587Z,1010.54
2018-08-09T10:22:55.549Z,1010.51
2018-08-09T10:23:55.511Z,1010.43
2018-08-09T10:24:55.472Z,1010.46
2018-08-09T10:25:55.435Z,1010.42
2018-08-09T10:26:55.397Z,1010.42
2018-08-09T10:27:55.359Z,1010.42
2018-08-09T10:28:55.321Z,1010.40
2018-08-09T10:29:55.367Z,1010.37
2018-08-09T10:30:55.246Z,1010.40
2018-08-09T10:31:55.207Z,1010.39
2018-08-09T10:32:55.170Z,1010.40
2018-08-09T10:33:55.131Z,1010.39
2018-08-09T10:34:55.093Z,1010.37
2018-08-09T10:35:55.056Z,1010.39
2018-08-09T10:36:55.027Z,1010.44
2018-08-09T10:37:54.980Z,1010.41
2018-08-09T10:38:54.941Z,1010.38
2018-08-09T10:39:54.903Z,1010.36
2018-08-09T10:40:54.865Z,1010.38
2018-08-09T10:41:54.827Z,1010.34
2018-08-09T10:42:54.790Z,1010.29
2018-08-09T10:43:54.751Z,1010.28
2018-08-09T10:44:54.713Z,1010.28
2018-08-09T10:45:54.676Z,1010.25
2018-08-09T10:46:54.642Z,1010.26
2018-08-09T10:47:54.599Z,1010.22
2018-08-09T10:48:54.618Z,1010.20
2018-08-09T10:49:54.523Z,1010.19
2018-08-09T10:50:54.489Z,1010.15
2018-08-09T10:51:54.448Z,1010.16
2018-08-09T10:52:54.408Z,1010.15
2018-08-09T10:53:54.370Z,1010.12
2018-08-09T10:54:54.332Z,1010.11
2018-08-09T10:55:54.295Z,1010.14
2018-08-09T10:56:54.258Z,1010.06
2018-08-09T10:57:54.218Z,1010.09
2018-08-09T10:58:54.230Z,1010.08
2018-08-09T10:59:54.142Z,1010.10
2018-08-09T11:00:54.104Z,1010.09
2018-08-09T11:01:54.066Z,1010.07
2018-08-09T11:02:54.038Z,1010.03
2018-08-09T11:03:53.992Z,1010.07
2018-08-09T11:04:53.950Z,1010.10
2018-08-09T11:05:53.913Z,1010.06
2018-08-09T11:06:53.877Z,1010.02
2018-08-09T11:07:53.838Z,1010.00
2018-08-09T11:08:53.799Z,1009.98
2018-08-09T11:09:53.761Z,1009.99
2018-08-09T11:10:53.724Z,1009.96
2018-08-09T11:11:53.688Z,1009.97
2018-08-09T11:12:53.646Z,1009.96
2018-08-09T11:13:53.608Z,1009.93
2018-08-09T11:14:53.571Z,1009.86
2018-08-09T11:15:53.532Z,1009.83
2018-08-09T11:16:53.506Z,1009.85
2018-08-09T11:17:53.456Z,1009.84
2018-08-09T11:18:53.417Z,1009.81
2018-08-09T11:19:53.380Z,1009.81
2018-08-09T11:20:53.341Z,1009.79
2018-08-09T11:21:53.303Z,1009.76
2018-08-09T11:22:53.265Z,1009.70
2018-08-09T11:23:53.227Z,1009.71
2018-08-09T11:24:53.189Z,1009.72
2018-08-09T11:25:53.153Z,1009.72
2018-08-09T11:26:53.112Z,1009.68
2018-08-09T11:27:53.075Z,1009.67
2018-08-09T11:28:53.043Z,1009.68
2018-08-09T11:29:52.998Z,1009.65
2018-08-09T11:30:52.960Z,1009.62
2018-08-09T11:31:52.926Z,1009.58
2018-08-09T11:32:52.883Z,1009.57
2018-08-09T11:33:52.848Z,1009.54
2018-08-09T11:34:52.807Z,1009.50
2018-08-09T11:35:52.769Z,1009.46
2018-08-09T11:36:52.729Z,1009.44
2018-08-09T11:37:52.692Z,1009.46
2018-08-09T11:38:52.654Z,1009.49
2018-08-09T11:39:52.691Z,1009.46
2018-08-09T11:40:52.577Z,1009.42
2018-08-09T11:41:52.539Z,1009.40
2018-08-09T11:42:52.501Z,1009.43
2018-08-09T11:43:52.463Z,1009.42
2018-08-09T11:44:52.424Z,1009.39
2018-08-09T11:45:52.386Z,1009.41
2018-08-09T11:46:52.351Z,1009.38
2018-08-09T11:47:52.310Z,1009.33
2018-08-09T11:48:52.271Z,1009.30
2018-08-09T11:49:52.233Z,1009.28
2018-08-09T11:50:52.195Z,1009.29
2018-08-09T11:51:52.157Z,1009.29
2018-08-09T11:52:52.118Z,1009.29
2018-08-09T11:53:52.090Z,1009.30
2018-08-09T11:54:52.042Z,1009.23
2018-08-09T11:55:52.004Z,1009.22
2018-08-09T11:56:52.008Z,1009.28
2018-08-09T11:57:51.927Z,1009.26
2018-08-09T11:58:51.889Z,1009.26
2018-08-09T11:59:51.851Z,1009.25
2018-08-09T12:00:51.812Z,1009.21
2018-08-09T12:01:51.811Z,1009.22
2018-08-09T12:02:51.736Z,1009.20
2018-08-09T12:03:51.699Z,1009.17
2018-08-09T12:04:51.660Z,1009.11